Vernon, IL (62892)

01:40 PM CDT del 29 Settembre 2016 (GMT -0500)
0IL2 - Griffin Airport - | | Change Station

Alt. 540 ft 38.80 °N, 89.00 °W | Updated 5 seconds ago

Overcast
Coperto
62.7 °F
Sembra 62.7 °F
N
11.0
Vento Variabile Vento da NNO
Gusts 18.0 mph

Oggi
Massima -- | Minima -- °F
--% Possibilità di precip.
Ieri
Massima -- | Minima -- °F
Precip. -- in
Pressione 30.13 in
Visibilità 10.0 miglia
Nuvole Nubi sparse 2700 ft
Molto nuvoloso 4600 ft
Coperto 7000 ft
Punto di rugiada 58 °F
Umidità 84%
Piovosità 0.00 in
Spessore del manto nevoso Non disponibile.
6:50 AM 6:41 PM
Luna calante, 1% visible
METAR KSLO 291835Z AUTO 33011KT 10SM SCT027 BKN046 OVC070 19/13 A3013 RMK AO2 T01860133
Pressione 30.13 in
Visibilità 10.0 miglia
Nuvole Nubi sparse 2700 ft
Molto nuvoloso 4600 ft
Coperto 7000 ft
Punto di rugiada 58 °F
Umidità 84%
Piovosità 0.00 in
Spessore del manto nevoso Non disponibile.
6:50 AM 6:41 PM
Luna calante, 1% visible
METAR KSLO 291835Z AUTO 33011KT 10SM SCT027 BKN046 OVC070 19/13 A3013 RMK AO2 T01860133

10-Day Weather Forecast

Almanac

Astronomia

Sep. 29, 2016 Alba Tramonto
Ora attuale
Crepuscolo civile
Crepuscolo nautico
Crepuscolo astronomico
Luna
Estensione della luce visibile
Lunghezza del giorno
Tomorrow will be .
, % of the Moon is Illuminated

Gli estremi di oggi

State Highs State Lows

Community

WunderPhotos

Upload Photos

1,942,545 foto caricate!

WunderBlog® & News

Nearby

Qualità dell'aria

  Qualità dell'aria Indice AQ Inquinante
Not available.

Profondità neve

Stazione Profondità Altitudine

Attività sismica

Città  Distanza Mag. Data & Ora
Minimo Magnitudo Mostrato è 2.5.

Temperature delle acque costiere

Località Temperatura

Stations

Stazioni meteo nelle vicinanze

Ubicazione della stazione Temp. Raffreddamento del vento Punto di rugiada Umidità Vento Precip. Alt. Aggiornato Tipo
                   

Watches & Warnings

There are currently no watches in effect.